首页
METAR-TAF:

METAR-TAF

机场 :

拉奥罗拉国际机场

瓜地馬拉, 危地马拉

纬度: 14-35N, 经度: 090-31W, 海拔: 1489米

当前天气观测

该预报发布于57分钟前的00:00 UTC
风速6节,风向
温度 20°C
湿度 73%
气压 1024 hPa
能见度10公里或以上
少量云层高于1800英尺, 塔状积云.
少量云层高于2400英尺, 积雨云.
多云层高于10000英尺
少量云层高于20000英尺

METAR: MGGT 210000Z 18006KT 9999 FEW018TCU FEW024CB BKN100 20/15 Q1024 A3024 FEW200 CB NE/ENE TCU NNE/SSE

时间: 18:57 (00:57 UTC)

预报

该预报发布于7小时和57分钟前的17:00 UTC
预报有效从20日的 18点(UTC)到 21日的 18点(UTC)
风速8节,风向
能见度10公里或以上
散云层高于1800英尺
短暂存在
从 20日的 19点(UTC)到 21日的 02点(UTC)
能見度: 7000
散云层高于1800英尺, 塔状积云.
少量云层高于2500英尺, 积雨云.
雷暴, 雨
成为
从 21日的 02点(UTC)到 21日的 04点(UTC)
风速节,风向
多云层高于1400英尺
短暂存在
从 21日的 02点(UTC)到 21日的 08点(UTC)
能見度: 7000
多云层高于1200英尺
阴天层高于8000英尺
几率 40%
从 21日的 08点(UTC)到 21日的 12点(UTC)
能見度: 5000
多云层高于1200英尺
轻雾
成为
从 21日的 15点(UTC)到 21日的 17点(UTC)
风速10节,风向
散云层高于1800英尺

TAF: MGGT 201700Z 2018/2118 18008KT 9999 SCT018 TX25/2020Z TN17/2112Z TEMPO 2019/2102 7000 TSRA SCT018TCU FEW025CB BECMG 2102/2104 00000KT BKN014 TEMPO 2102/2108 7000 RA BKN012 OVC080 PROB40 2108/2112 5000 BR BKN012 BECMG 2115/2117 18010KT SCT018

超过4000个机场的气象观测和天气预报(METAR&TAF报告)。

可查询的气象台以黄色和红色小点在地图上表示。

将鼠标移到小点上方,可查看气象台名称。

然后点击查看天气观测和预报。

如需切换地图:点击带黑十字的绿色按钮放大地图;点击带横线的绿色按钮缩小地图;或者点击绿色箭头查看邻近地区的地图。


METAR-TAF: